Time;durP1;ratioP1;P1;durP2;ratioP2;P2;SDS_P1;SDS_P2;PMS_P1;PMS_P2;Temp;Humidity;BMP_temperature;BMP_pressure;BME280_temperature;BME280_humidity;BME280_pressure;Samples;Min_cycle;Max_cycle;Signal;HPM_P1;HPM_P2
2022/02/26 00:01:23;;;;;;;;;;;;;;;3.50;68.86;101104.38;4927770;29;19926;-85
2022/02/26 00:03:49;;;;;;;;;;;;;;;3.49;68.64;101104.34;4925743;29;19922;-87
2022/02/26 00:06:14;;;;;;;;;;;;;;;3.50;68.51;101106.97;4942769;29;19947;-87
2022/02/26 00:08:39;;;;;;;;;;;;;;;3.50;68.64;101112.22;4946212;28;20396;-89
2022/02/26 00:11:05;;;;;;;;;;;;;;;3.53;68.59;101112.25;4946768;28;19922;-87
2022/02/26 00:13:30;;;;;;;;;;;;;;;3.51;68.45;101108.75;4943376;28;20045;-87
2022/02/26 00:15:55;;;;;;;;;;;;;;;3.56;68.67;101116.66;4927023;29;19922;-89
2022/02/26 00:18:21;;;;;;;;;;;;;;;3.54;68.31;101119.25;4944513;28;19937;-88
2022/02/26 00:20:46;;;;;;;;;;;;;;;3.55;68.27;101112.25;4945714;28;19929;-87
2022/02/26 00:23:12;;;;;;;;;;;;;;;3.53;68.10;101116.63;4941803;29;19954;-85
2022/02/26 00:25:37;;;;;;;;;;;;;;;3.58;68.25;101117.53;4926428;29;19973;-88
2022/02/26 00:28:03;;;;;;;;;;;;;;;3.58;68.18;101115.78;4944317;29;20018;-87
2022/02/26 00:30:28;;;;;;;;;;;;;;;3.59;68.16;101127.13;4925172;29;19918;-88
2022/02/26 00:32:54;;;;;;;;;;;;;;;3.58;68.09;101121.00;4929616;29;19938;-87
2022/02/26 00:35:19;;;;;;;;;;;;;;;3.61;67.81;101130.66;4929120;29;19922;-89
2022/02/26 00:37:44;;;;;;;;;;;;;;;3.62;67.89;101135.00;4926116;29;20009;-89
2022/02/26 00:40:11;;;;;;;;;;;;;;;3.62;67.80;101141.16;4947726;28;19922;-88
2022/02/26 00:42:38;;;;;;;;;;;;;;;3.63;67.73;101139.41;4926265;28;19934;-88
2022/02/26 00:45:06;;;;;;;;;;;;;;;3.59;67.75;101146.38;4928033;29;20501;-89
2022/02/26 00:47:32;;;;;;;;;;;;;;;3.62;67.54;101153.34;4927778;28;19922;-87
2022/02/26 00:49:57;;;;;;;;;;;;;;;3.65;67.79;101153.38;4944396;29;19937;-87
2022/02/26 00:52:25;;;;;;;;;;;;;;;3.87;69.45;101153.56;4942942;29;19931;-89
2022/02/26 00:54:50;;;;;;;;;;;;;;;4.03;72.22;101149.28;4944788;29;19938;-86
2022/02/26 00:57:21;;;;;;;;;;;;;;;4.11;74.81;101156.31;4932700;29;19939;-86
2022/02/26 00:59:46;;;;;;;;;;;;;;;4.09;76.80;101149.31;4938825;29;19926;-87
2022/02/26 01:02:12;;;;;;;;;;;;;;;4.14;78.79;101158.06;4945765;29;19922;-89
2022/02/26 01:04:38;;;;;;;;;;;;;;;4.18;80.67;101163.34;4949007;29;20028;-87
2022/02/26 01:07:04;;;;;;;;;;;;;;;4.24;82.17;101165.13;4947947;29;19992;-86
2022/02/26 01:09:29;;;;;;;;;;;;;;;4.19;83.32;101161.59;4947892;29;20653;-88
2022/02/26 01:11:55;;;;;;;;;;;;;;;4.12;84.57;101159.81;4948103;28;19950;-88
2022/02/26 04:28:07;;;;;;;;;;;;;;;4.01;91.85;101277.78;4877474;29;1827670;-84
2022/02/26 04:30:34;;;;;;;;;;;;;;;3.97;91.25;101273.38;4943402;29;19946;-84
2022/02/26 04:33:00;;;;;;;;;;;;;;;3.96;91.22;101274.25;4948469;29;19926;-83
2022/02/26 04:35:25;;;;;;;;;;;;;;;3.94;91.27;101275.97;4949958;29;19922;-87
2022/02/26 04:37:50;;;;;;;;;;;;;;;3.88;90.73;101283.78;4949861;29;19954;-84
2022/02/26 04:40:16;;;;;;;;;;;;;;;3.81;90.49;101281.13;4949989;29;19962;-85
2022/02/26 04:42:41;;;;;;;;;;;;;;;3.77;90.00;101296.81;4948639;29;19929;-84
2022/02/26 04:45:08;;;;;;;;;;;;;;;3.70;89.84;101295.00;4950835;29;19918;-82
2022/02/26 04:47:33;;;;;;;;;;;;;;;3.73;89.62;101288.03;4949103;29;20373;-84
2022/02/26 04:49:58;;;;;;;;;;;;;;;3.71;89.46;101289.75;4949386;29;19925;-83
2022/02/26 04:52:24;;;;;;;;;;;;;;;3.66;89.53;101296.72;4950068;29;20373;-88
2022/02/26 04:54:49;;;;;;;;;;;;;;;3.71;88.99;101299.38;4951968;28;19926;-82
2022/02/26 04:57:14;;;;;;;;;;;;;;;3.66;88.51;101296.72;4952523;29;20156;-83
2022/02/26 04:59:39;;;;;;;;;;;;;;;3.69;88.06;101298.50;4953784;29;19918;-89
2022/02/26 05:02:05;;;;;;;;;;;;;;;3.56;87.63;101310.59;4953364;29;20405;-85
2022/02/26 05:04:30;;;;;;;;;;;;;;;3.52;87.63;101306.19;4943990;29;19918;-85
2022/02/26 05:06:55;;;;;;;;;;;;;;;3.54;87.53;101299.22;4953826;29;19929;-85
2022/02/26 05:09:21;;;;;;;;;;;;;;;3.72;88.49;101307.25;4935383;29;19923;-88
2022/02/26 05:11:46;;;;;;;;;;;;;;;3.86;91.17;101304.78;4927946;29;19919;-86
2022/02/26 05:14:12;;;;;;;;;;;;;;;3.92;93.01;101303.94;4928353;29;19977;-87
2022/02/26 05:16:38;;;;;;;;;;;;;;;3.87;92.64;101300.41;4953214;29;20028;-86
2022/02/26 05:19:03;;;;;;;;;;;;;;;3.77;92.53;101295.06;4951796;29;20366;-85
2022/02/26 05:21:28;;;;;;;;;;;;;;;3.70;92.37;101309.00;4928036;29;20167;-85
2022/02/26 05:23:54;;;;;;;;;;;;;;;3.70;92.06;101308.09;4927536;29;19918;-85
2022/02/26 05:26:19;;;;;;;;;;;;;;;3.67;91.89;101305.44;4925391;29;19922;-85
2022/02/26 05:28:44;;;;;;;;;;;;;;;3.66;91.58;101309.81;4952384;29;19926;-84
2022/02/26 05:31:10;;;;;;;;;;;;;;;3.57;91.44;101305.34;4951408;29;19925;-84
2022/02/26 05:33:36;;;;;;;;;;;;;;;3.54;91.54;101301.81;4927199;29;19926;-85
2022/02/26 05:36:01;;;;;;;;;;;;;;;3.52;91.04;101308.81;4924474;29;19965;-84
2022/02/26 05:38:26;;;;;;;;;;;;;;;3.44;90.59;101313.97;4925901;29;19927;-83
2022/02/26 05:40:52;;;;;;;;;;;;;;;3.41;90.48;101321.78;4950475;29;19937;-84
2022/02/26 05:43:17;;;;;;;;;;;;;;;3.37;90.39;101320.88;4951612;29;19922;-84
2022/02/26 05:45:42;;;;;;;;;;;;;;;3.40;89.92;101315.69;4926336;29;19918;-84
2022/02/26 05:48:08;;;;;;;;;;;;;;;3.37;89.77;101318.25;4950237;29;19950;-85
2022/02/26 05:50:33;;;;;;;;;;;;;;;3.37;89.45;101317.38;4951542;29;19919;-84
2022/02/26 08:55:38;;;;;;;;;;;;;;;2.53;78.78;101405.28;5512439;23;19933;-84
2022/02/26 08:58:03;;;;;;;;;;;;;;;2.56;78.82;101411.44;4929262;28;20147;-81
2022/02/26 09:00:28;;;;;;;;;;;;;;;2.48;78.35;101408.69;4951084;28;19921;-86
2022/02/26 09:02:54;;;;;;;;;;;;;;;2.53;78.36;101404.41;4932137;28;19962;-85
2022/02/26 09:05:20;;;;;;;;;;;;;;;2.55;78.56;101410.53;4934180;28;19918;-84
2022/02/26 09:07:45;;;;;;;;;;;;;;;2.60;78.72;101414.13;4934738;28;19969;-83
2022/02/26 09:10:10;;;;;;;;;;;;;;;2.55;78.47;101413.16;4953128;28;19922;-84
2022/02/26 09:12:36;;;;;;;;;;;;;;;2.54;78.49;101408.81;4936184;28;20312;-85
2022/02/26 09:15:01;;;;;;;;;;;;;;;2.51;78.27;101403.50;4936891;28;20005;-85
2022/02/26 09:17:27;;;;;;;;;;;;;;;2.44;78.25;101399.03;4935970;28;19923;-83
2022/02/26 09:19:52;;;;;;;;;;;;;;;2.52;78.03;101400.03;4950637;28;20284;-86
2022/02/26 09:22:18;;;;;;;;;;;;;;;2.49;77.91;101407.81;4935075;28;20491;-85
2022/02/26 09:24:43;;;;;;;;;;;;;;;2.47;77.82;101397.38;4934625;28;20191;-85
2022/02/26 09:27:08;;;;;;;;;;;;;;;2.51;77.89;101401.78;4952768;28;20543;-83
2022/02/26 09:29:33;;;;;;;;;;;;;;;2.53;77.76;101404.41;4954674;28;20619;-83
2022/02/26 09:31:59;;;;;;;;;;;;;;;2.51;77.73;101404.38;4937712;28;19923;-85
2022/02/26 09:34:25;;;;;;;;;;;;;;;2.53;77.55;101401.78;4935955;28;20374;-84
2022/02/26 09:36:52;;;;;;;;;;;;;;;2.56;77.64;101404.47;4950240;28;20428;-83
2022/02/26 09:39:18;;;;;;;;;;;;;;;2.53;77.35;101402.66;4937182;28;19969;-82
2022/02/26 09:41:43;;;;;;;;;;;;;;;2.56;77.33;101401.84;4947236;28;19923;-85
2022/02/26 09:44:09;;;;;;;;;;;;;;;2.53;77.34;101400.03;4957216;28;20011;-83
2022/02/26 09:46:35;;;;;;;;;;;;;;;2.52;77.30;101397.41;4957973;28;19922;-84
2022/02/26 09:49:00;;;;;;;;;;;;;;;2.56;77.39;101404.47;4957529;28;20053;-83
2022/02/26 09:51:26;;;;;;;;;;;;;;;2.59;77.25;101401.91;4957129;28;19957;-84
2022/02/26 09:53:53;;;;;;;;;;;;;;;2.56;77.23;101401.84;4943873;28;19976;-85
2022/02/26 09:56:20;;;;;;;;;;;;;;;2.56;77.17;101395.75;4956346;28;19926;-84
2022/02/26 09:58:45;;;;;;;;;;;;;;;2.57;76.82;101401.00;4955163;28;20472;-84
2022/02/26 10:01:10;;;;;;;;;;;;;;;2.58;76.81;101401.88;4939205;28;19922;-86
2022/02/26 10:03:37;;;;;;;;;;;;;;;2.64;77.17;101389.75;4939552;28;20831;-84
2022/02/26 10:06:16;;;;;;;;;;;;;;;2.67;77.19;101405.50;4956960;28;20275;-82
2022/02/26 10:08:45;;;;;;;;;;;;;;;2.71;77.06;101396.84;4956412;28;19919;-84
2022/02/26 10:11:29;;;;;;;;;;;;;;;2.63;76.84;101403.72;4951309;28;19922;-84
2022/02/26 10:14:02;;;;;;;;;;;;;;;2.63;76.34;101393.25;4952169;28;19929;-84
2022/02/26 10:16:43;;;;;;;;;;;;;;;2.59;75.90;101388.81;4953857;28;19930;-82
2022/02/26 10:19:08;;;;;;;;;;;;;;;2.64;75.77;101388.88;4953745;28;19922;-83
2022/02/26 10:21:36;;;;;;;;;;;;;;;2.64;75.68;101388.88;4937947;28;20037;-86
2022/02/26 10:24:01;;;;;;;;;;;;;;;2.67;75.50;101389.81;4938643;28;19918;-84
2022/02/26 10:26:27;;;;;;;;;;;;;;;2.70;75.37;101389.84;4955997;28;19926;-84
2022/02/26 10:29:05;;;;;;;;;;;;;;;2.74;75.50;101385.53;4953742;28;19959;-84
2022/02/26 10:31:50;;;;;;;;;;;;;;;2.71;75.34;101383.78;4954770;28;20072;-84
2022/02/26 10:34:23;;;;;;;;;;;;;;;2.72;75.21;101380.28;4936598;28;19918;-82
2022/02/26 10:36:57;;;;;;;;;;;;;;;2.73;75.05;101376.81;4954738;28;19926;-83
2022/02/26 10:39:29;;;;;;;;;;;;;;;2.72;74.85;101376.78;4955031;28;19915;-83
2022/02/26 10:41:54;;;;;;;;;;;;;;;2.77;74.95;101379.47;4954678;28;20066;-84
2022/02/26 10:44:20;;;;;;;;;;;;;;;2.85;74.72;101383.94;4957589;28;20238;-83
2022/02/26 10:46:45;;;;;;;;;;;;;;;2.78;74.42;101378.63;4956591;28;19918;-84
2022/02/26 10:49:13;;;;;;;;;;;;;;;2.81;74.49;101381.25;4956250;28;19925;-82
2022/02/26 10:51:40;;;;;;;;;;;;;;;2.80;74.34;101375.16;4951576;28;19989;-83
2022/02/26 10:54:09;;;;;;;;;;;;;;;2.79;73.98;101369.91;4956009;28;19925;-82
2022/02/26 10:56:39;;;;;;;;;;;;;;;2.86;74.06;101363.91;4936465;28;19934;-85
2022/02/26 10:59:06;;;;;;;;;;;;;;;2.87;73.91;101365.63;4955217;28;20289;-84
2022/02/26 11:01:32;;;;;;;;;;;;;;;2.88;73.82;101364.78;4954308;28;19968;-84
2022/02/26 11:03:57;;;;;;;;;;;;;;;2.88;73.58;101359.56;4936516;28;19922;-85
2022/02/26 11:06:23;;;;;;;;;;;;;;;2.86;73.47;101362.16;4956137;28;20382;-82
2022/02/26 11:08:49;;;;;;;;;;;;;;;2.87;73.32;101358.69;4954186;28;19919;-83
2022/02/26 11:11:16;;;;;;;;;;;;;;;2.90;73.52;101366.59;4952841;28;19918;-84
2022/02/26 11:13:42;;;;;;;;;;;;;;;2.91;73.18;101367.47;4954533;28;20292;-84
2022/02/26 11:16:09;;;;;;;;;;;;;;;2.90;73.31;101355.22;4953800;28;19926;-86
2022/02/26 11:18:41;;;;;;;;;;;;;;;2.94;73.34;101361.41;4952335;28;19922;-84
2022/02/26 11:21:08;;;;;;;;;;;;;;;2.93;72.97;101360.50;4949175;28;19922;-83
2022/02/26 11:23:33;;;;;;;;;;;;;;;2.93;72.95;101360.50;4952244;28;19928;-83
2022/02/26 11:25:59;;;;;;;;;;;;;;;2.95;72.85;101364.00;4952063;28;20378;-83
2022/02/26 11:28:26;;;;;;;;;;;;;;;2.97;72.89;101356.16;4953136;28;19932;-84
2022/02/26 11:30:55;;;;;;;;;;;;;;;2.97;72.60;101357.06;4950203;28;20401;-83
2022/02/26 11:33:21;;;;;;;;;;;;;;;2.98;72.62;101352.69;4933560;28;19923;-83
2022/02/26 11:35:53;;;;;;;;;;;;;;;3.02;72.66;101358.00;4952213;28;19922;-83
2022/02/26 11:38:19;;;;;;;;;;;;;;;2.99;72.30;101355.34;4952909;28;19922;-85
2022/02/26 11:40:47;;;;;;;;;;;;;;;3.03;72.17;101346.69;4953122;28;19934;-85
2022/02/26 11:43:35;;;;;;;;;;;;;;;3.04;72.31;101348.41;4953634;28;19930;-85
2022/02/26 11:46:17;;;;;;;;;;;;;;;3.01;71.88;101347.50;4952611;28;20321;-86
2022/02/26 11:48:42;;;;;;;;;;;;;;;3.03;71.85;101344.06;4950418;28;20182;-85
2022/02/26 11:51:11;;;;;;;;;;;;;;;3.03;71.73;101338.81;4949231;28;20080;-83
2022/02/26 11:53:43;;;;;;;;;;;;;;;3.05;71.64;101337.09;4945563;28;20452;-84
2022/02/26 11:56:08;;;;;;;;;;;;;;;3.06;71.42;101336.25;4946515;28;20312;-83
2022/02/26 11:58:34;;;;;;;;;;;;;;;3.07;71.51;101332.75;4949963;28;19922;-85
2022/02/26 12:01:08;;;;;;;;;;;;;;;3.07;71.14;101321.41;4932535;28;19933;-85
2022/02/26 12:03:54;;;;;;;;;;;;;;;3.09;71.41;101314.44;4950417;28;19922;-84
2022/02/26 12:06:22;;;;;;;;;;;;;;;3.11;71.31;101317.06;4945865;28;19925;-85
2022/02/26 12:08:53;;;;;;;;;;;;;;;3.16;71.48;101315.38;4949848;28;19977;-85
2022/02/26 12:11:21;;;;;;;;;;;;;;;3.16;71.44;101310.13;4948821;28;19952;-86
2022/02/26 12:13:48;;;;;;;;;;;;;;;3.15;71.24;101305.78;4949002;28;20185;-84
2022/02/26 12:16:16;;;;;;;;;;;;;;;3.19;71.26;101299.69;4946005;28;19922;-86
2022/02/26 12:18:42;;;;;;;;;;;;;;;3.19;71.05;101295.38;4929082;28;19922;-84
2022/02/26 12:21:11;;;;;;;;;;;;;;;3.19;71.09;101300.59;4928992;28;20531;-85
2022/02/26 12:23:40;;;;;;;;;;;;;;;3.22;71.13;101299.75;4943064;28;19926;-87
2022/02/26 12:26:08;;;;;;;;;;;;;;;3.23;70.86;101291.03;4934324;28;19922;-87
2022/02/26 12:28:36;;;;;;;;;;;;;;;3.21;70.65;101298.00;4951166;28;19993;-86
2022/02/26 12:31:06;;;;;;;;;;;;;;;3.22;70.73;101284.03;4924609;28;19929;-86
2022/02/26 12:33:45;;;;;;;;;;;;;;;3.29;70.85;101283.25;4947819;28;19922;-84
2022/02/26 12:36:20;;;;;;;;;;;;;;;3.32;70.59;101280.66;4933337;28;19922;-84
2022/02/26 12:38:51;;;;;;;;;;;;;;;3.30;70.75;101279.75;4929429;28;19922;-85
2022/02/26 12:41:35;;;;;;;;;;;;;;;3.31;70.52;101273.66;4947748;28;19938;-83
2022/02/26 12:44:00;;;;;;;;;;;;;;;3.31;70.51;101271.03;4948486;28;20016;-84
2022/02/26 12:46:27;;;;;;;;;;;;;;;3.31;70.56;101268.41;4949167;28;20014;-86
2022/02/26 12:48:53;;;;;;;;;;;;;;;3.34;70.31;101271.06;4931362;28;20472;-85
2022/02/26 12:51:19;;;;;;;;;;;;;;;3.54;71.54;101260.78;4930303;28;20005;-84
2022/02/26 12:53:44;;;;;;;;;;;;;;;3.72;73.74;101260.06;4947376;28;20017;-86
2022/02/26 12:56:09;;;;;;;;;;;;;;;3.87;76.06;101261.06;4941049;28;19950;-87
2022/02/26 12:58:35;;;;;;;;;;;;;;;3.90;77.99;101255.84;4946806;28;19970;-84
2022/02/26 13:01:00;;;;;;;;;;;;;;;3.90;79.70;101250.59;4939737;28;19944;-83
2022/02/26 13:03:26;;;;;;;;;;;;;;;3.87;81.12;101250.56;4937839;28;20119;-87
2022/02/26 13:05:51;;;;;;;;;;;;;;;3.90;82.09;101254.09;4931776;28;19949;-85
2022/02/26 13:08:17;;;;;;;;;;;;;;;3.89;83.12;101247.06;4928397;28;20576;-87
2022/02/26 13:10:44;;;;;;;;;;;;;;;3.88;83.79;101231.34;4945674;28;19930;-85
2022/02/26 13:13:14;;;;;;;;;;;;;;;3.85;84.85;101240.06;4932938;28;19922;-84
2022/02/26 13:15:41;;;;;;;;;;;;;;;3.74;85.73;101224.25;4926099;28;19926;-87
2022/02/26 13:18:07;;;;;;;;;;;;;;;3.61;87.00;101225.88;4940140;28;20001;-83
2022/02/26 13:20:33;;;;;;;;;;;;;;;3.64;88.33;101232.91;4934007;28;20354;-84
2022/02/26 13:22:59;;;;;;;;;;;;;;;3.66;89.69;101220.69;4951311;28;20303;-87
2022/02/26 13:25:27;;;;;;;;;;;;;;;3.81;91.44;101218.19;4930657;28;19922;-87
2022/02/26 13:27:52;;;;;;;;;;;;;;;4.06;93.69;101212.25;4932582;28;20294;-82
2022/02/26 13:30:22;;;;;;;;;;;;;;;4.29;96.32;101212.38;4934662;28;19934;-85
2022/02/26 13:32:49;;;;;;;;;;;;;;;4.43;98.93;101202.81;4952533;28;19933;-86
2022/02/26 13:35:15;;;;;;;;;;;;;;;4.62;100.00;101205.56;4952721;28;19932;-84
2022/02/26 13:40:51;;;;;;;;;;;;;;;4.75;100.00;101198.59;4933746;29;19973;-80
2022/02/26 13:43:18;;;;;;;;;;;;;;;4.84;100.00;101191.63;4934878;29;19927;-79
2022/02/26 13:45:43;;;;;;;;;;;;;;;4.86;100.00;101189.88;4934152;29;20035;-80
2022/02/26 13:48:13;;;;;;;;;;;;;;;4.93;100.00;101179.38;4921883;29;20239;-79
2022/02/26 13:50:38;;;;;;;;;;;;;;;4.95;100.00;101185.53;4941172;28;20289;-80
2022/02/26 13:53:04;;;;;;;;;;;;;;;5.00;100.00;101191.66;4945209;29;19927;-79
2022/02/26 13:55:30;;;;;;;;;;;;;;;5.02;100.00;101182.03;4946495;29;19918;-80
2022/02/26 13:57:55;;;;;;;;;;;;;;;5.08;100.00;101179.44;4946968;29;19939;-79
2022/02/26 14:00:24;;;;;;;;;;;;;;;5.08;100.00;101171.53;4946572;29;19922;-79
2022/02/26 14:02:58;;;;;;;;;;;;;;;5.16;100.00;101179.44;4930178;29;19926;-80
2022/02/26 14:05:24;;;;;;;;;;;;;;;5.18;100.00;101175.94;4946599;29;19922;-80
2022/02/26 14:07:51;;;;;;;;;;;;;;;5.21;100.00;101170.69;4945657;29;20026;-80
2022/02/26 14:10:16;;;;;;;;;;;;;;;5.23;100.00;101163.69;4946731;29;19923;-80
2022/02/26 14:12:49;;;;;;;;;;;;;;;5.33;100.00;101161.03;4947106;29;19941;-79
2022/02/26 14:15:15;;;;;;;;;;;;;;;5.33;100.00;101161.03;4929136;29;19970;-79
2022/02/26 14:17:42;;;;;;;;;;;;;;;5.35;100.00;101159.31;4929460;29;19918;-79
2022/02/26 14:20:09;;;;;;;;;;;;;;;5.37;100.00;101154.94;4937263;29;19923;-80
2022/02/26 14:22:35;;;;;;;;;;;;;;;5.42;100.00;101147.91;4927882;29;20430;-80
2022/02/26 14:25:08;;;;;;;;;;;;;;;5.44;100.00;101147.03;4937251;29;19966;-79
2022/02/26 14:27:33;;;;;;;;;;;;;;;4.73;100.00;101144.31;4936919;29;20374;-79
2022/02/26 14:30:04;;;;;;;;;;;;;;;4.19;100.00;101141.47;4944958;29;20030;-80
2022/02/26 14:32:33;;;;;;;;;;;;;;;4.00;100.00;101134.38;4937270;29;20286;-80
2022/02/26 14:34:58;;;;;;;;;;;;;;;3.82;99.22;101140.41;4946016;29;20377;-79
2022/02/26 14:37:24;;;;;;;;;;;;;;;3.78;97.68;101133.38;4936031;29;20210;-79
2022/02/26 14:39:49;;;;;;;;;;;;;;;3.70;95.59;101133.34;4957687;28;19923;-80
2022/02/26 14:42:14;;;;;;;;;;;;;;;3.62;94.04;101132.38;4964958;28;20365;-79
2022/02/26 14:44:40;;;;;;;;;;;;;;;3.57;92.85;101131.47;4965064;28;19918;-80
2022/02/26 14:47:05;;;;;;;;;;;;;;;3.47;91.65;101137.53;4948549;28;20355;-79
2022/02/26 14:49:30;;;;;;;;;;;;;;;3.44;90.65;101127.91;4964211;28;19922;-79
2022/02/26 14:51:56;;;;;;;;;;;;;;;3.47;90.16;101119.19;4963968;28;19922;-79
2022/02/26 14:54:23;;;;;;;;;;;;;;;3.37;89.07;101121.75;4962772;28;19929;-79
2022/02/26 14:56:48;;;;;;;;;;;;;;;3.36;88.46;101122.59;4964095;28;19976;-79
2022/02/26 14:59:14;;;;;;;;;;;;;;;3.42;87.86;101104.31;4963864;28;19926;-79
2022/02/26 15:01:39;;;;;;;;;;;;;;;3.33;87.04;101104.22;4964043;28;19988;-79
2022/02/26 15:04:05;;;;;;;;;;;;;;;3.36;86.47;101104.25;4964143;28;20016;-79
2022/02/26 15:06:30;;;;;;;;;;;;;;;3.26;85.76;101103.31;4964117;28;20350;-80
2022/02/26 15:08:56;;;;;;;;;;;;;;;3.24;84.97;101109.41;4962405;28;19941;-79
2022/02/26 15:11:22;;;;;;;;;;;;;;;3.21;84.91;101110.25;4946448;28;19929;-79
2022/02/26 15:13:48;;;;;;;;;;;;;;;3.15;84.60;101098.84;4963992;28;20381;-80
2022/02/26 15:16:13;;;;;;;;;;;;;;;3.21;84.19;101104.16;4946410;28;19919;-80
2022/02/26 15:18:38;;;;;;;;;;;;;;;3.11;84.12;101107.53;4961548;28;19977;-80
2022/02/26 15:21:03;;;;;;;;;;;;;;;3.01;83.65;101101.34;4946015;28;20366;-80
2022/02/26 15:23:29;;;;;;;;;;;;;;;3.04;83.38;101101.38;4959864;28;19923;-80
2022/02/26 15:25:54;;;;;;;;;;;;;;;3.04;83.02;101099.63;4954290;28;20365;-80
2022/02/26 15:28:20;;;;;;;;;;;;;;;2.91;82.88;101096.00;4946346;28;19922;-79
2022/02/26 15:30:45;;;;;;;;;;;;;;;2.93;82.56;101090.78;4963648;28;19919;-80
2022/02/26 15:33:11;;;;;;;;;;;;;;;2.98;82.50;101086.47;4945861;28;20368;-80
2022/02/26 15:35:36;;;;;;;;;;;;;;;2.93;82.19;101085.56;4963300;28;19922;-80
2022/02/26 15:38:02;;;;;;;;;;;;;;;2.87;81.98;101080.25;4961822;28;20325;-80
2022/02/26 15:40:27;;;;;;;;;;;;;;;2.86;82.11;101083.75;4946346;28;19945;-79
2022/02/26 15:42:53;;;;;;;;;;;;;;;2.75;81.67;101082.78;4946053;28;20310;-80
2022/02/26 15:45:18;;;;;;;;;;;;;;;2.78;81.49;101077.59;4946838;28;20323;-80
2022/02/26 15:47:44;;;;;;;;;;;;;;;2.82;81.66;101081.97;4963256;28;19922;-80
2022/02/26 15:50:09;;;;;;;;;;;;;;;2.80;81.32;101070.59;4962996;28;19958;-80
2022/02/26 15:52:35;;;;;;;;;;;;;;;2.75;80.95;101073.19;4962860;28;19926;-80
2022/02/26 15:55:00;;;;;;;;;;;;;;;2.64;80.90;101073.06;4964359;28;20281;-80
2022/02/26 15:57:25;;;;;;;;;;;;;;;2.58;81.21;101065.16;4963834;28;19945;-79
2022/02/26 15:59:51;;;;;;;;;;;;;;;2.63;81.52;101060.88;4963593;28;20514;-80
2022/02/26 16:02:16;;;;;;;;;;;;;;;2.67;81.19;101062.63;4963692;28;20322;-80
2022/02/26 16:04:41;;;;;;;;;;;;;;;2.71;81.13;101067.03;4954839;28;19919;-80
2022/02/26 16:07:06;;;;;;;;;;;;;;;2.63;80.77;101063.47;4963485;28;19973;-79
2022/02/26 16:09:32;;;;;;;;;;;;;;;2.60;80.85;101062.53;4962378;28;19929;-79
2022/02/26 16:11:57;;;;;;;;;;;;;;;2.65;80.66;101060.84;4963741;28;19914;-80
2022/02/26 16:14:22;;;;;;;;;;;;;;;2.66;80.51;101068.72;4963887;28;19922;-80
2022/02/26 16:16:47;;;;;;;;;;;;;;;2.62;80.25;101061.72;4963592;28;19919;-80
2022/02/26 16:19:12;;;;;;;;;;;;;;;2.59;80.28;101064.28;4963122;28;19925;-80
2022/02/26 16:21:38;;;;;;;;;;;;;;;2.62;80.41;101059.09;4963641;28;19922;-79
2022/02/26 16:24:03;;;;;;;;;;;;;;;2.56;80.37;101066.88;4962570;28;19926;-80
2022/02/26 16:26:29;;;;;;;;;;;;;;;2.58;80.40;101070.38;4963245;28;20382;-80
2022/02/26 16:28:54;;;;;;;;;;;;;;;2.57;80.18;101060.78;4963217;28;19926;-79
2022/02/26 16:31:19;;;;;;;;;;;;;;;2.54;79.83;101060.75;4963343;28;19965;-80
2022/02/26 16:33:44;;;;;;;;;;;;;;;2.60;79.95;101057.31;4964366;28;19922;-79
2022/02/26 16:36:10;;;;;;;;;;;;;;;2.54;79.94;101061.63;4964042;28;19981;-78
2022/02/26 16:38:35;;;;;;;;;;;;;;;2.48;80.05;101060.69;4963197;28;19969;-79
2022/02/26 16:41:01;;;;;;;;;;;;;;;2.44;80.13;101058.88;4964772;28;19977;-78
2022/02/26 16:43:26;;;;;;;;;;;;;;;2.60;79.84;101058.22;4948531;28;19985;-79
2022/02/26 16:45:51;;;;;;;;;;;;;;;2.45;79.38;101068.50;4944576;28;19925;-78
2022/02/26 16:48:16;;;;;;;;;;;;;;;2.44;79.54;101058.88;4964340;28;19919;-78
2022/02/26 16:50:42;;;;;;;;;;;;;;;2.47;79.75;101062.44;4966031;28;19918;-79
2022/02/26 16:53:07;;;;;;;;;;;;;;;2.45;79.56;101052.81;4967432;28;20337;-78
2022/02/26 16:55:33;;;;;;;;;;;;;;;2.40;79.64;101058.00;4970147;28;19986;-79
2022/02/26 16:57:58;;;;;;;;;;;;;;;2.40;79.46;101070.19;4956146;28;19927;-78
2022/02/26 17:00:25;;;;;;;;;;;;;;;2.42;79.33;101063.25;4950596;28;19927;-78
2022/02/26 17:02:50;;;;;;;;;;;;;;;2.36;79.15;101066.66;4967061;28;19926;-78
2022/02/26 17:05:17;;;;;;;;;;;;;;;2.35;79.09;101073.63;4966866;28;20302;-79
2022/02/26 17:07:43;;;;;;;;;;;;;;;2.35;79.14;101068.41;4947551;28;20293;-79
2022/02/26 17:10:08;;;;;;;;;;;;;;;2.36;79.15;101070.16;4949317;28;19922;-78
2022/02/26 17:12:34;;;;;;;;;;;;;;;2.40;79.32;101070.19;4952489;28;19930;-78
2022/02/26 17:14:59;;;;;;;;;;;;;;;2.40;79.16;101068.44;4946374;28;19949;-79
2022/02/26 17:17:25;;;;;;;;;;;;;;;2.38;78.99;101066.66;4945253;28;19923;-78
2022/02/26 17:19:51;;;;;;;;;;;;;;;2.33;79.06;101070.13;4966935;28;19932;-79
2022/02/26 17:22:16;;;;;;;;;;;;;;;2.33;78.77;101070.13;4966666;28;19923;-79
2022/02/26 17:24:42;;;;;;;;;;;;;;;2.33;78.78;101070.13;4949253;28;20386;-79
2022/02/26 17:27:07;;;;;;;;;;;;;;;2.30;78.92;101070.09;4949185;28;19926;-79
2022/02/26 17:29:33;;;;;;;;;;;;;;;2.28;78.54;101066.59;4949561;28;19926;-79
2022/02/26 17:31:58;;;;;;;;;;;;;;;2.26;78.75;101065.66;4966074;28;20390;-79
2022/02/26 17:34:23;;;;;;;;;;;;;;;2.25;78.91;101070.88;4967456;28;20599;-78
2022/02/26 17:36:49;;;;;;;;;;;;;;;2.32;78.55;101070.09;4951639;28;19973;-79
2022/02/26 17:39:14;;;;;;;;;;;;;;;2.32;78.35;101073.59;4955320;28;19926;-79
2022/02/26 17:41:40;;;;;;;;;;;;;;;2.22;78.06;101076.97;4966378;28;20334;-79
2022/02/26 17:44:06;;;;;;;;;;;;;;;2.35;78.47;101089.31;4967396;28;19923;-79
2022/02/26 17:46:32;;;;;;;;;;;;;;;2.29;78.46;101078.78;4949369;28;20012;-79
2022/02/26 17:48:57;;;;;;;;;;;;;;;2.35;78.10;101081.47;4948933;28;20008;-79
2022/02/26 17:51:23;;;;;;;;;;;;;;;2.26;78.20;101077.88;4965403;28;19926;-79
2022/02/26 17:53:48;;;;;;;;;;;;;;;2.24;78.02;101083.09;4964926;28;19922;-79
2022/02/26 17:56:14;;;;;;;;;;;;;;;2.22;78.22;101082.22;4965361;28;19933;-78
2022/02/26 17:58:39;;;;;;;;;;;;;;;2.23;77.86;101088.31;4947308;28;20412;-78
2022/02/26 18:01:04;;;;;;;;;;;;;;;2.23;77.87;101076.09;4965105;28;19925;-79
2022/02/26 18:03:30;;;;;;;;;;;;;;;2.31;77.94;101086.66;4947422;28;19926;-79
2022/02/26 18:05:55;;;;;;;;;;;;;;;2.28;77.83;101084.91;4962546;28;19929;-79
2022/02/26 18:08:20;;;;;;;;;;;;;;;2.31;77.83;101090.16;4962313;28;19926;-79
2022/02/26 18:10:45;;;;;;;;;;;;;;;2.25;77.71;101084.88;4963652;28;20369;-78
2022/02/26 18:13:15;;;;;;;;;;;;;;;2.27;77.88;101077.91;4945241;28;20013;-78
2022/02/26 18:15:41;;;;;;;;;;;;;;;2.23;77.59;101083.06;4965193;28;20378;-77
2022/02/26 18:18:07;;;;;;;;;;;;;;;2.27;77.55;101075.28;4962982;28;19922;-78
2022/02/26 18:20:33;;;;;;;;;;;;;;;2.28;77.41;101086.63;4945618;28;19926;-78
2022/02/26 18:22:58;;;;;;;;;;;;;;;3.25;77.34;101085.81;4943244;28;19923;-78
2022/02/26 18:25:23;;;;;;;;;;;;;;;2.65;78.08;101081.78;4963019;28;19926;-78
2022/02/26 18:27:48;;;;;;;;;;;;;;;2.52;78.33;101091.25;4948201;28;19930;-78
2022/02/26 18:30:14;;;;;;;;;;;;;;;2.45;78.15;101092.06;4964819;28;19934;-78
2022/02/26 18:32:42;;;;;;;;;;;;;;;2.39;78.30;101084.13;4964735;28;20385;-78
2022/02/26 18:35:08;;;;;;;;;;;;;;;2.36;78.07;101083.25;4962860;28;19926;-78
2022/02/26 18:37:33;;;;;;;;;;;;;;;2.28;78.12;101082.28;4945201;28;20720;-78
2022/02/26 18:39:58;;;;;;;;;;;;;;;2.34;78.04;101082.31;4962267;28;19926;-77
2022/02/26 18:42:23;;;;;;;;;;;;;;;2.25;77.58;101086.56;4964091;28;19930;-77
2022/02/26 18:44:49;;;;;;;;;;;;;;;2.28;77.62;101090.13;4960613;28;20017;-78
2022/02/26 18:47:14;;;;;;;;;;;;;;;2.26;77.40;101094.44;4954075;28;19961;-78
2022/02/26 18:49:39;;;;;;;;;;;;;;;2.30;77.30;101095.38;4965454;28;19922;-79
2022/02/26 18:52:05;;;;;;;;;;;;;;;2.25;77.23;101097.94;4963984;28;20401;-78
2022/02/26 18:54:30;;;;;;;;;;;;;;;2.17;77.21;101094.31;4961729;28;20017;-78
2022/02/26 18:56:55;;;;;;;;;;;;;;;2.25;77.12;101100.56;4962729;28;19922;-79
2022/02/26 18:59:21;;;;;;;;;;;;;;;2.28;76.87;101097.97;4961496;28;19930;-78
2022/02/26 19:01:46;;;;;;;;;;;;;;;2.22;76.92;101094.38;4958227;28;19930;-78